Time;durP1;ratioP1;P1;durP2;ratioP2;P2;SDS_P1;SDS_P2;PMS_P1;PMS_P2;Temp;Humidity;BMP_temperature;BMP_pressure;BME280_temperature;BME280_humidity;BME280_pressure;Samples;Min_cycle;Max_cycle;Signal;HPM_P1;HPM_P2
2022/07/27 00:01:20;;;;;;;2.55;1.30;;;;;;;15.59;100.00;101978.94;4730158;30;20426;-61
2022/07/27 00:03:46;;;;;;;4.15;1.38;;;;;;;15.59;100.00;101974.47;4733500;30;20564;-61
2022/07/27 00:06:13;;;;;;;4.80;1.50;;;;;;;15.62;100.00;101979.47;4738934;30;20147;-61
2022/07/27 00:08:40;;;;;;;3.80;1.27;;;;;;;15.59;100.00;101977.09;4724809;30;20093;-61
2022/07/27 00:11:07;;;;;;;3.05;1.10;;;;;;;15.65;100.00;101974.84;4741489;30;20575;-58
2022/07/27 00:13:34;;;;;;;3.83;1.20;;;;;;;15.67;100.00;101972.88;4736439;30;20066;-61
2022/07/27 00:16:00;;;;;;;4.95;1.77;;;;;;;15.65;100.00;101972.19;4735687;30;20056;-61
2022/07/27 00:18:27;;;;;;;5.25;1.45;;;;;;;15.61;100.00;101971.66;4740244;30;20067;-62
2022/07/27 00:20:54;;;;;;;4.55;1.42;;;;;;;15.58;100.00;101972.81;4728340;30;20064;-60
2022/07/27 00:23:20;;;;;;;5.80;1.50;;;;;;;15.54;100.00;101974.09;4731169;30;20061;-61
2022/07/27 00:25:47;;;;;;;4.65;1.27;;;;;;;15.50;100.00;101978.00;4724615;30;20055;-62
2022/07/27 00:28:13;;;;;;;8.45;1.80;;;;;;;15.46;100.00;101976.63;4753618;30;20060;-61
2022/07/27 00:30:40;;;;;;;6.10;1.48;;;;;;;15.49;100.00;101972.88;4735644;30;20430;-60
2022/07/27 00:33:06;;;;;;;5.25;1.70;;;;;;;15.46;100.00;101975.81;4732238;30;20086;-61
2022/07/27 00:35:33;;;;;;;6.40;1.60;;;;;;;15.46;100.00;101978.47;4737782;30;20059;-61
2022/07/27 00:38:01;;;;;;;4.85;1.38;;;;;;;15.40;100.00;101977.25;4740014;30;20496;-63
2022/07/27 00:40:27;;;;;;;2.92;1.35;;;;;;;15.33;100.00;101973.56;4732677;30;20067;-61
2022/07/27 00:42:54;;;;;;;3.50;1.52;;;;;;;15.26;100.00;101970.66;4732839;30;20063;-61
2022/07/27 00:45:20;;;;;;;7.70;1.48;;;;;;;15.23;100.00;101977.09;4739763;30;20075;-61
2022/07/27 00:47:47;;;;;;;6.43;1.40;;;;;;;15.24;100.00;101975.28;4732350;30;20092;-61
2022/07/27 00:50:20;;;;;;;4.13;1.58;;;;;;;15.20;100.00;101966.81;4727731;30;20802;-61
2022/07/27 00:52:47;;;;;;;4.63;1.45;;;;;;;15.16;100.00;101970.72;4734911;30;20147;-61
2022/07/27 00:55:14;;;;;;;6.65;1.83;;;;;;;15.15;100.00;101960.28;4736079;30;20070;-61
2022/07/27 00:57:41;;;;;;;3.60;1.35;;;;;;;15.08;100.00;101970.63;4738295;30;20073;-61
2022/07/27 01:00:28;;;;;;;5.78;1.17;;;;;;;15.07;100.00;101966.31;4725910;30;20070;-59
2022/07/27 01:02:54;;;;;;;4.32;1.50;;;;;;;15.04;100.00;101964.00;4733998;30;20086;-60
2022/07/27 01:05:23;;;;;;;;;;;;;;;15.04;100.00;101966.63;4735146;30;20094;-62
2022/07/27 01:08:01;;;;;;;3.65;1.20;;;;;;;14.98;100.00;101968.03;4744734;30;20018;-60
2022/07/27 01:10:27;;;;;;;4.88;1.20;;;;;;;14.94;100.00;101969.31;4743989;30;20824;-62
2022/07/27 01:12:54;;;;;;;4.07;1.30;;;;;;;14.90;100.00;101975.06;4734000;30;20056;-62
2022/07/27 01:15:21;;;;;;;3.30;1.30;;;;;;;14.86;100.00;101963.09;4741969;30;20060;-61
2022/07/27 01:17:47;;;;;;;3.58;1.20;;;;;;;14.80;100.00;101961.91;4721577;30;20541;-62
2022/07/27 01:20:13;;;;;;;5.20;1.50;;;;;;;14.79;100.00;101968.97;4735507;30;20071;-62
2022/07/27 01:22:40;;;;;;;4.53;1.67;;;;;;;14.75;100.00;101964.13;4738365;30;20143;-61
2022/07/27 01:25:08;;;;;;;6.95;2.42;;;;;;;14.73;100.00;101971.38;4741121;30;20080;-61
2022/07/27 01:27:34;;;;;;;6.55;1.80;;;;;;;14.70;100.00;101974.28;4729396;30;20517;-61
2022/07/27 01:30:00;;;;;;;4.55;1.63;;;;;;;14.69;100.00;101976.09;4728773;30;20163;-62
2022/07/27 01:32:27;;;;;;;9.52;1.60;;;;;;;14.66;100.00;101976.38;4725073;30;20064;-62
2022/07/27 01:34:53;;;;;;;6.75;1.67;;;;;;;14.62;100.00;101973.22;4723686;30;20064;-62
2022/07/27 01:37:20;;;;;;;6.45;1.88;;;;;;;14.60;100.00;101979.59;4744728;30;20735;-61
2022/07/27 01:39:46;;;;;;;5.88;1.80;;;;;;;14.57;100.00;101975.47;4732825;30;20065;-61
2022/07/27 01:42:15;;;;;;;3.33;1.30;;;;;;;14.56;100.00;101973.81;4735446;30;20111;-61
2022/07/27 01:44:41;;;;;;;4.75;1.40;;;;;;;14.58;100.00;101971.84;4730443;30;20499;-61
2022/07/27 01:47:08;;;;;;;4.35;1.25;;;;;;;14.59;100.00;101970.84;4727885;29;20064;-59
2022/07/27 01:49:40;;;;;;;6.82;1.50;;;;;;;14.61;100.00;101963.63;4732720;30;20573;-61
2022/07/27 01:52:06;;;;;;;6.70;1.48;;;;;;;14.60;100.00;101961.13;4721642;30;20072;-61
2022/07/27 01:54:32;;;;;;;4.82;1.40;;;;;;;14.61;100.00;101957.53;4739218;30;20581;-61
2022/07/27 01:56:59;;;;;;;4.35;1.48;;;;;;;14.61;100.00;101962.81;4727562;30;20310;-62
2022/07/27 01:59:25;;;;;;;8.43;1.45;;;;;;;14.60;100.00;101967.25;4729735;30;20063;-62
2022/07/27 02:01:52;;;;;;;5.68;1.30;;;;;;;14.58;100.00;101961.28;4732416;30;20064;-62
2022/07/27 02:04:18;;;;;;;7.05;1.75;;;;;;;14.57;100.00;101964.06;4720889;30;20074;-63
2022/07/27 02:06:45;;;;;;;4.82;1.35;;;;;;;14.57;100.00;101966.72;4739564;30;20078;-61
2022/07/27 02:09:12;;;;;;;5.13;1.60;;;;;;;14.54;100.00;101951.94;4741945;30;20074;-62
2022/07/27 02:14:24;;;;;;;3.92;1.30;;;;;;;14.51;100.00;101954.06;4734691;30;20067;-62
2022/07/27 02:16:51;;;;;;;4.28;1.27;;;;;;;14.54;100.00;101959.84;4744775;30;20079;-61
2022/07/27 02:19:17;;;;;;;2.83;1.35;;;;;;;14.52;100.00;101953.06;4741497;30;20450;-62
2022/07/27 02:21:44;;;;;;;6.32;1.70;;;;;;;14.48;100.00;101956.97;4732200;30;20056;-61
2022/07/27 02:24:10;;;;;;;6.18;1.40;;;;;;;14.46;100.00;101954.47;4734643;30;20135;-61
2022/07/27 02:26:37;;;;;;;3.15;1.30;;;;;;;14.43;100.00;101950.31;4724479;30;20143;-60
2022/07/27 02:29:04;;;;;;;5.47;1.60;;;;;;;14.44;100.00;101949.38;4741571;30;20446;-61
2022/07/27 02:31:30;;;;;;;3.03;1.15;;;;;;;14.40;100.00;101947.13;4740443;30;20530;-61
2022/07/27 02:33:58;;;;;;;6.10;1.60;;;;;;;14.40;100.00;101952.41;4742752;30;20148;-61
2022/07/27 02:36:27;;;;;;;6.32;1.55;;;;;;;14.41;100.00;101952.28;4747685;30;20566;-58
2022/07/27 02:38:55;;;;;;;4.63;1.52;;;;;;;14.45;100.00;101955.47;4730054;30;20067;-60
2022/07/27 02:41:22;;;;;;;6.13;1.58;;;;;;;14.46;100.00;101943.91;4728508;30;20056;-61
2022/07/27 02:43:48;;;;;;;4.97;1.40;;;;;;;14.46;100.00;101951.84;4731990;30;20056;-61
2022/07/27 02:46:15;;;;;;;3.65;1.42;;;;;;;14.42;100.00;101947.81;4738418;30;20078;-61
2022/07/27 02:48:41;;;;;;;6.63;1.50;;;;;;;14.44;100.00;101952.00;4733649;30;20446;-62
2022/07/27 02:51:08;;;;;;;5.03;1.55;;;;;;;14.43;100.00;101946.88;4733322;30;20067;-61
2022/07/27 02:53:34;;;;;;;6.22;1.35;;;;;;;14.38;100.00;101946.44;4735905;30;20063;-62
2022/07/27 02:56:01;;;;;;;2.92;1.30;;;;;;;14.39;100.00;101943.66;4730425;30;20453;-61
2022/07/27 02:58:27;;;;;;;8.05;1.60;;;;;;;14.35;100.00;101947.56;4742165;30;20066;-60
2022/07/27 03:00:54;;;;;;;5.47;1.50;;;;;;;14.33;100.00;101946.88;4733643;30;20071;-61
2022/07/27 03:03:24;;;;;;;2.88;1.35;;;;;;;14.36;100.00;101957.13;4735579;30;20434;-61
2022/07/27 03:06:05;;;;;;;3.53;1.30;;;;;;;14.35;100.00;101944.13;4741917;30;20059;-61
2022/07/27 03:08:32;;;;;;;4.88;1.30;;;;;;;14.31;100.00;101942.72;4736079;30;20520;-62
2022/07/27 03:10:58;;;;;;;4.45;1.27;;;;;;;14.29;100.00;101947.31;4744996;30;20066;-60
2022/07/27 03:13:27;;;;;;;5.47;1.30;;;;;;;14.20;100.00;101944.56;4742938;30;20082;-59
2022/07/27 03:15:54;;;;;;;3.65;1.40;;;;;;;14.22;100.00;101952.34;4745645;30;20590;-60
2022/07/27 03:18:21;;;;;;;11.20;1.95;;;;;;;14.20;100.00;101947.19;4742592;30;20090;-60
2022/07/27 03:20:47;;;;;;;3.83;1.17;;;;;;;14.15;100.00;101941.53;4732441;30;20701;-62
2022/07/27 03:23:14;;;;;;;5.15;1.20;;;;;;;14.16;100.00;101942.34;4717905;30;20526;-60
2022/07/27 03:25:40;;;;;;;3.40;1.10;;;;;;;14.15;100.00;101938.88;4740876;30;20511;-60
2022/07/27 03:28:06;;;;;;;4.30;1.40;;;;;;;14.16;100.00;101937.06;4745941;30;20411;-60
2022/07/27 03:30:33;;;;;;;2.42;1.30;;;;;;;14.21;100.00;101946.22;4737250;30;20064;-61
2022/07/27 03:32:59;;;;;;;3.35;1.38;;;;;;;14.26;100.00;101947.59;4739363;30;20057;-59
2022/07/27 03:35:26;;;;;;;6.57;1.92;;;;;;;14.28;100.00;101941.19;4726775;30;20128;-59
2022/07/27 03:37:52;;;;;;;6.22;1.38;;;;;;;14.29;100.00;101945.50;4743195;30;20529;-61
2022/07/27 03:40:19;;;;;;;4.88;1.40;;;;;;;14.30;100.00;101943.69;4734104;30;20067;-61
2022/07/27 03:42:45;;;;;;;3.17;1.40;;;;;;;14.32;100.00;101939.94;4744355;30;20060;-60
2022/07/27 03:45:12;;;;;;;6.63;1.30;;;;;;;14.35;100.00;101944.13;4744003;30;20064;-61
2022/07/27 03:47:38;;;;;;;3.92;1.38;;;;;;;14.34;100.00;101950.34;4738312;30;20056;-61
2022/07/27 03:50:05;;;;;;;8.10;1.75;;;;;;;14.38;100.00;101952.56;4741277;30;20075;-61
2022/07/27 03:52:31;;;;;;;4.70;1.50;;;;;;;14.36;100.00;101951.03;4724402;30;20139;-61
2022/07/27 03:54:58;;;;;;;5.70;1.73;;;;;;;14.29;100.00;101952.56;4743663;30;20056;-61
2022/07/27 03:57:24;;;;;;;3.88;1.52;;;;;;;14.28;100.00;101954.41;4732574;30;20100;-62
2022/07/27 03:59:51;;;;;;;5.72;1.60;;;;;;;14.27;100.00;101958.03;4743258;30;20442;-59
2022/07/27 04:02:17;;;;;;;4.70;1.85;;;;;;;14.27;100.00;101954.53;4737257;30;20068;-60
2022/07/27 04:04:44;;;;;;;4.13;1.65;;;;;;;14.28;100.00;101961.50;4736083;30;20673;-61
2022/07/27 04:07:10;;;;;;;5.57;1.52;;;;;;;14.24;100.00;101955.66;4742509;30;20088;-59
2022/07/27 04:09:37;;;;;;;5.88;1.90;;;;;;;14.13;100.00;101955.81;4734853;30;20065;-61
2022/07/27 04:12:05;;;;;;;4.35;1.75;;;;;;;14.13;100.00;101954.03;4746325;30;20064;-60
2022/07/27 04:14:32;;;;;;;5.68;1.55;;;;;;;14.13;100.00;101955.81;4730990;30;20067;-60
2022/07/27 04:16:58;;;;;;;5.72;2.00;;;;;;;14.15;100.00;101967.91;4746664;30;20052;-60
2022/07/27 04:19:25;;;;;;;4.57;1.80;;;;;;;14.13;100.00;101969.88;4750515;30;20087;-60
2022/07/27 04:21:51;;;;;;;5.90;2.00;;;;;;;14.13;100.00;101963.72;4746964;30;20078;-61
2022/07/27 04:24:18;;;;;;;4.75;1.70;;;;;;;14.13;100.00;101971.66;4741126;30;20056;-60
2022/07/27 04:26:44;;;;;;;7.32;2.15;;;;;;;14.13;100.00;101967.22;4730206;30;20063;-60
2022/07/27 04:29:10;;;;;;;9.52;2.00;;;;;;;14.10;100.00;101972.78;4742867;30;20074;-60
2022/07/27 04:31:42;;;;;;;8.13;1.92;;;;;;;14.14;100.00;101981.25;4731909;30;20072;-60
2022/07/27 04:34:08;;;;;;;10.07;1.88;;;;;;;14.16;100.00;101971.38;4744081;30;20594;-60
2022/07/27 04:36:37;;;;;;;5.40;1.90;;;;;;;14.14;100.00;101979.44;4744860;30;20060;-61
2022/07/27 04:39:04;;;;;;;5.38;1.50;;;;;;;14.13;100.00;101985.69;4738214;30;20064;-62
2022/07/27 04:41:31;;;;;;;5.82;1.90;;;;;;;14.11;100.00;101971.78;4741886;30;20498;-61
2022/07/27 04:43:58;;;;;;;3.08;2.00;;;;;;;14.12;100.00;101980.56;4733970;30;20059;-61
2022/07/27 04:46:26;;;;;;;4.87;1.53;;;;;;;14.15;100.00;101985.53;4741063;30;20063;-61
2022/07/27 04:48:53;;;;;;;7.43;1.80;;;;;;;14.15;100.00;101981.09;4736102;30;20068;-59
2022/07/27 04:51:19;;;;;;;7.47;1.77;;;;;;;14.19;100.00;101979.00;4747223;30;20296;-61
2022/07/27 04:53:46;;;;;;;5.07;1.77;;;;;;;14.18;100.00;101980.81;4744903;30;20102;-61
2022/07/27 04:56:25;;;;;;;7.88;2.13;;;;;;;14.24;100.00;101987.31;4733598;30;20063;-61
2022/07/27 04:58:51;;;;;;;6.43;2.33;;;;;;;14.28;100.00;101986.06;4744263;30;20150;-60
2022/07/27 05:01:18;;;;;;;3.97;1.60;;;;;;;14.27;100.00;101983.56;4738132;30;20064;-62
2022/07/27 05:03:44;;;;;;;2.13;1.55;;;;;;;14.27;100.00;101983.56;4747102;30;20083;-61
2022/07/27 05:06:11;;;;;;;5.53;1.70;;;;;;;14.32;100.00;101990.06;4739358;30;20066;-60
2022/07/27 05:08:37;;;;;;;7.35;2.03;;;;;;;14.38;100.00;102004.53;4736242;30;20434;-62
2022/07/27 05:11:03;;;;;;;6.18;1.95;;;;;;;14.47;100.00;102006.31;4738788;30;20052;-60
2022/07/27 05:13:30;;;;;;;7.03;1.38;;;;;;;14.51;100.00;102009.50;4744464;30;20062;-64
2022/07/27 05:15:56;;;;;;;5.90;1.80;;;;;;;14.57;100.00;102007.13;4746473;30;20086;-62
2022/07/27 05:18:24;;;;;;;7.20;1.88;;;;;;;14.70;100.00;102009.47;4738283;30;20538;-62
2022/07/27 05:20:50;;;;;;;5.40;1.52;;;;;;;14.74;100.00;102015.28;4732479;30;20072;-62
2022/07/27 05:23:17;;;;;;;8.23;2.13;;;;;;;14.80;100.00;102018.19;4728217;30;20064;-62
2022/07/27 05:25:43;;;;;;;3.78;1.25;;;;;;;14.91;100.00;102011.88;4732526;30;20521;-61
2022/07/27 05:28:10;;;;;;;5.65;2.03;;;;;;;14.96;100.00;102022.84;4731300;30;20068;-62
2022/07/27 05:30:37;;;;;;;2.25;1.20;;;;;;;15.05;100.00;102028.22;4734032;30;20075;-62
2022/07/27 05:33:04;;;;;;;5.22;1.30;;;;;;;15.11;100.00;102025.00;4739037;30;20060;-60
2022/07/27 05:35:30;;;;;;;3.72;1.40;;;;;;;15.14;100.00;102020.25;4727036;30;20068;-61
2022/07/27 05:37:57;;;;;;;2.05;1.10;;;;;;;15.21;100.00;102023.13;4736254;30;20070;-64
2022/07/27 05:40:25;;;;;;;4.60;1.50;;;;;;;15.30;100.00;102026.72;4732508;30;20064;-63
2022/07/27 05:42:51;;;;;;;5.80;1.42;;;;;;;15.38;100.00;102032.91;4744828;30;20477;-63
2022/07/27 05:45:18;;;;;;;3.40;1.30;;;;;;;15.44;100.00;102042.06;4750090;30;20083;-62
2022/07/27 05:47:44;;;;;;;3.70;1.20;;;;;;;15.50;100.00;102045.94;4725125;30;20061;-63
2022/07/27 05:50:11;;;;;;;3.50;1.20;;;;;;;15.55;100.00;102049.78;4734907;30;20056;-62
2022/07/27 05:52:37;;;;;;;5.75;1.50;;;;;;;15.59;100.00;102048.50;4727315;30;20090;-61
2022/07/27 05:55:05;;;;;;;5.22;1.45;;;;;;;15.69;100.00;102048.44;4747802;30;20052;-62
2022/07/27 05:57:32;;;;;;;2.50;0.98;;;;;;;15.75;100.00;102047.03;4739557;30;20629;-60
2022/07/27 06:00:00;;;;;;;3.78;1.33;;;;;;;15.76;100.00;102044.25;4750690;30;20063;-61
2022/07/27 06:02:28;;;;;;;5.50;1.58;;;;;;;15.85;100.00;102045.16;4742560;30;20967;-62
2022/07/27 06:04:55;;;;;;;1.35;0.90;;;;;;;15.91;100.00;102038.44;4729785;30;20147;-62
2022/07/27 06:10:07;;;;;;;2.58;1.00;;;;;;;16.07;100.00;102043.03;4741157;30;22020;-62
2022/07/27 06:12:38;;;;;;;2.90;1.08;;;;;;;16.14;100.00;102049.38;4745998;30;20090;-62
2022/07/27 06:15:06;;;;;;;2.97;0.90;;;;;;;16.23;100.00;102053.75;4734647;30;20064;-60
2022/07/27 06:17:33;;;;;;;4.80;1.35;;;;;;;16.30;100.00;102041.56;4744123;30;20064;-62
2022/07/27 06:19:59;;;;;;;2.88;1.20;;;;;;;16.34;100.00;102042.09;4750045;30;20060;-62
2022/07/27 06:22:26;;;;;;;5.30;0.93;;;;;;;16.41;100.00;102040.50;4750270;30;20064;-63
2022/07/27 06:24:52;;;;;;;2.17;0.90;;;;;;;16.46;100.00;102040.84;4747605;30;20060;-61
2022/07/27 06:27:19;;;;;;;8.05;1.00;;;;;;;16.47;100.00;102033.75;4732297;30;20064;-62
2022/07/27 06:29:45;;;;;;;4.35;0.80;;;;;;;16.58;100.00;102038.75;4745965;30;20159;-61
2022/07/27 06:32:12;;;;;;;2.35;0.80;;;;;;;16.66;100.00;102045.91;4743270;30;20087;-64
2022/07/27 06:34:39;;;;;;;7.60;1.10;;;;;;;16.68;100.00;102036.00;4743678;30;20055;-63
2022/07/27 06:37:08;;;;;;;4.00;0.63;;;;;;;16.76;100.00;102041.38;4728174;30;20499;-64
2022/07/27 06:39:35;;;;;;;4.00;0.85;;;;;;;16.80;100.00;102040.88;4746017;30;20075;-62
2022/07/27 06:42:02;;;;;;;0.85;0.70;;;;;;;16.88;100.00;102041.97;4746527;30;20068;-62
2022/07/27 06:44:28;;;;;;;2.22;0.75;;;;;;;16.84;100.00;102038.78;4739323;30;20070;-63
2022/07/27 06:46:55;;;;;;;1.92;0.95;;;;;;;16.96;100.00;102044.63;4742710;30;20060;-61
2022/07/27 06:49:21;;;;;;;3.58;1.30;;;;;;;17.04;100.00;102042.03;4736492;30;20060;-62
2022/07/27 06:51:48;;;;;;;4.55;0.90;;;;;;;17.14;100.00;102055.16;4738092;30;20064;-62
2022/07/27 06:54:14;;;;;;;4.72;1.20;;;;;;;17.19;100.00;102053.69;4739995;30;20052;-62
2022/07/27 06:56:40;;;;;;;4.60;1.17;;;;;;;17.31;100.00;102056.06;4743332;30;20060;-61
2022/07/27 06:59:07;;;;;;;3.10;1.23;;;;;;;17.33;100.00;102051.41;4747881;30;20080;-62
2022/07/27 07:01:33;;;;;;;4.25;1.27;;;;;;;17.32;100.00;102055.88;4743138;30;20465;-62
2022/07/27 07:04:00;;;;;;;4.32;1.05;;;;;;;17.44;100.00;102051.09;4737267;30;20068;-60
2022/07/27 07:06:27;;;;;;;3.03;1.10;;;;;;;17.50;100.00;102053.09;4727720;30;20064;-62
2022/07/27 07:08:53;;;;;;;2.92;1.33;;;;;;;17.62;100.00;102053.66;4731575;30;20075;-62
2022/07/27 07:11:20;;;;;;;3.10;0.85;;;;;;;17.70;100.00;102053.66;4742047;30;20064;-60
2022/07/27 07:13:46;;;;;;;3.78;1.15;;;;;;;17.79;100.00;102065.09;4743667;30;20063;-61
2022/07/27 07:16:13;;;;;;;6.97;1.10;;;;;;;17.88;100.00;102055.38;4746326;30;20060;-63
2022/07/27 07:18:39;;;;;;;3.58;0.90;;;;;;;17.97;100.00;102057.03;4731514;30;20087;-63
2022/07/27 07:21:06;;;;;;;1.73;0.70;;;;;;;18.03;100.00;102058.19;4736512;30;20060;-62
2022/07/27 07:23:32;;;;;;;5.03;0.88;;;;;;;18.08;100.00;102062.00;4719852;30;20534;-62
2022/07/27 07:25:59;;;;;;;4.93;1.00;;;;;;;18.13;100.00;102064.16;4739375;30;20061;-62
2022/07/27 07:28:25;;;;;;;3.20;0.98;;;;;;;18.26;100.00;102059.19;4748222;30;20151;-63
2022/07/27 07:30:52;;;;;;;2.80;0.98;;;;;;;18.32;100.00;102065.66;4722971;30;20064;-62
2022/07/27 07:33:19;;;;;;;2.55;0.77;;;;;;;18.37;100.00;102069.47;4729362;30;20055;-62
2022/07/27 07:35:45;;;;;;;2.80;0.70;;;;;;;18.38;100.00;102068.50;4731185;30;20072;-62
2022/07/27 07:38:33;;;;;;;11.00;1.00;;;;;;;18.28;100.00;102064.34;4733492;30;20081;-62
2022/07/27 07:40:59;;;;;;;3.08;0.80;;;;;;;18.35;100.00;102070.66;4739618;30;20147;-62
2022/07/27 07:43:26;;;;;;;5.70;1.00;;;;;;;18.34;100.00;102069.78;4745393;30;20064;-63
2022/07/27 07:45:52;;;;;;;4.63;1.20;;;;;;;18.25;100.00;102078.78;4735188;30;20153;-61
2022/07/27 07:48:20;;;;;;;2.35;0.70;;;;;;;18.14;100.00;102069.31;4738110;30;20083;-61
2022/07/27 07:50:49;;;;;;;5.43;1.08;;;;;;;18.20;100.00;102074.97;4735344;30;20473;-61
2022/07/27 07:53:18;;;;;;;2.95;1.10;;;;;;;18.25;100.00;102072.63;4737949;30;20130;-63
2022/07/27 07:55:44;;;;;;;2.40;0.82;;;;;;;18.14;100.00;102073.78;4746696;30;20063;-62
2022/07/27 07:58:11;;;;;;;3.28;0.75;;;;;;;18.01;100.00;102074.28;4745404;30;20069;-62
2022/07/27 08:00:38;;;;;;;3.17;0.90;;;;;;;17.96;100.00;102073.97;4748122;30;20074;-62
2022/07/27 08:03:04;;;;;;;5.70;1.10;;;;;;;17.73;100.00;102077.19;4737141;30;20422;-62
2022/07/27 08:05:31;;;;;;;3.67;1.00;;;;;;;17.66;100.00;102076.22;4739640;30;20550;-62
2022/07/27 08:07:58;;;;;;;2.25;0.80;;;;;;;17.77;100.00;102073.22;4747699;30;20064;-62
2022/07/27 08:10:24;;;;;;;4.25;0.80;;;;;;;17.73;100.00;102082.50;4735793;29;20078;-63
2022/07/27 08:12:53;;;;;;;3.58;0.98;;;;;;;17.76;100.00;102073.41;4745050;30;20075;-62
2022/07/27 08:15:21;;;;;;;3.60;1.10;;;;;;;17.81;100.00;102080.88;4739084;30;20560;-63
2022/07/27 08:18:01;;;;;;;4.75;0.95;;;;;;;17.92;100.00;102089.38;4747507;30;20056;-62
2022/07/27 08:20:27;;;;;;;2.45;1.02;;;;;;;17.83;99.32;102087.66;4733988;30;20118;-63
2022/07/27 08:22:54;;;;;;;4.65;1.00;;;;;;;17.90;100.00;102088.72;4746338;30;20060;-62
2022/07/27 08:25:20;;;;;;;4.65;1.10;;;;;;;18.06;100.00;102084.41;4744773;30;20427;-62
2022/07/27 08:27:47;;;;;;;9.77;1.20;;;;;;;18.16;100.00;102079.78;4743214;30;20407;-62
2022/07/27 08:30:13;;;;;;;8.02;1.38;;;;;;;18.36;100.00;102081.06;4740377;30;20143;-63
2022/07/27 08:32:49;;;;;;;2.78;0.93;;;;;;;18.68;100.00;102082.06;4723448;30;20064;-63
2022/07/27 08:35:18;;;;;;;3.20;1.05;;;;;;;18.77;89.80;102080.19;4727048;30;20056;-62
2022/07/27 08:37:44;;;;;;;4.47;1.40;;;;;;;19.06;91.52;102076.16;4724192;30;20069;-61
2022/07/27 08:40:12;;;;;;;2.40;1.10;;;;;;;19.55;89.62;102081.25;4739887;30;20060;-62
2022/07/27 08:43:00;;;;;;;5.40;0.90;;;;;;;19.98;84.67;102086.16;4735664;30;20068;-61
2022/07/27 08:45:29;;;;;;;6.20;1.00;;;;;;;20.18;89.69;102081.19;4742555;30;20063;-62
2022/07/27 08:47:56;;;;;;;3.97;1.00;;;;;;;20.41;84.26;102073.16;4749001;30;20155;-61
2022/07/27 08:50:22;;;;;;;3.38;1.00;;;;;;;20.39;86.99;102073.31;4739968;30;20148;-63
2022/07/27 08:53:07;;;;;;;3.78;1.10;;;;;;;20.34;83.98;102078.34;4742547;30;20407;-62
2022/07/27 08:55:39;;;;;;;7.20;1.00;;;;;;;20.47;86.11;102072.41;4719700;30;20070;-61
2022/07/27 08:58:07;;;;;;;3.67;1.10;;;;;;;20.46;83.18;102073.41;4734887;30;20063;-62
2022/07/27 09:00:37;;;;;;;2.25;0.77;;;;;;;20.63;83.41;102074.94;4739218;30;20440;-62
2022/07/27 09:03:04;;;;;;;5.35;1.00;;;;;;;20.79;81.04;102073.94;4740784;30;20074;-62
2022/07/27 09:05:31;;;;;;;2.97;1.00;;;;;;;21.08;70.17;102065.09;4737604;30;20076;-62
2022/07/27 09:08:15;;;;;;;3.33;0.90;;;;;;;21.49;74.98;102067.25;4746821;30;20067;-63
2022/07/27 09:10:43;;;;;;;3.78;0.95;;;;;;;21.79;74.84;102069.00;4730723;30;20060;-62
2022/07/27 09:13:25;;;;;;;6.83;1.20;;;;;;;21.81;71.97;102065.09;4734492;30;20490;-62
2022/07/27 09:16:01;;;;;;;3.85;0.90;;;;;;;21.55;68.77;102065.66;4734047;30;20057;-62
2022/07/27 09:18:44;;;;;;;2.90;0.80;;;;;;;21.38;72.62;102073.03;4733204;30;20068;-63
2022/07/27 09:21:15;;;;;;;6.32;1.30;;;;;;;21.17;72.15;102062.31;4744365;30;20103;-61
2022/07/27 09:23:49;;;;;;;4.90;1.13;;;;;;;20.98;71.73;102056.56;4734044;30;20064;-62
2022/07/27 09:26:27;;;;;;;4.93;1.10;;;;;;;21.29;76.31;102061.66;4739407;30;20430;-62
2022/07/27 09:29:02;;;;;;;7.05;1.20;;;;;;;21.66;72.42;102061.66;4727526;30;20067;-62
2022/07/27 09:31:29;;;;;;;3.20;0.90;;;;;;;21.84;71.08;102056.72;4729391;30;20590;-62
2022/07/27 09:34:00;;;;;;;4.78;1.05;;;;;;;22.11;66.01;102048.94;4735063;30;20135;-62
2022/07/27 09:36:28;;;;;;;3.75;1.13;;;;;;;22.41;67.57;102060.31;4739101;30;20067;-62
2022/07/27 09:38:55;;;;;;;;;;;;;;;22.63;65.54;102060.22;4735555;30;20167;-61
2022/07/27 09:42:01;;;;;;;3.72;1.13;;;;;;;22.89;63.65;102055.03;4749317;30;20345;-63
2022/07/27 09:44:34;;;;;;;3.30;0.93;;;;;;;22.80;65.39;102050.88;4736307;30;20048;-62
2022/07/27 09:47:27;;;;;;;5.13;0.93;;;;;;;22.73;67.29;102046.50;4730678;30;20065;-62
2022/07/27 09:50:20;;;;;;;3.60;0.98;;;;;;;22.70;66.94;102058.44;4734481;30;20068;-64
2022/07/27 09:52:46;;;;;;;3.63;1.05;;;;;;;22.55;63.98;102055.88;4716593;30;20419;-63
2022/07/27 09:55:13;;;;;;;3.65;1.10;;;;;;;22.25;63.13;102050.72;4742739;30;20063;-63
2022/07/27 09:57:56;;;;;;;2.47;0.88;;;;;;;22.09;65.34;102058.97;4734464;30;20070;-63
2022/07/27 10:00:24;;;;;;;3.58;0.90;;;;;;;21.95;65.84;102055.38;4740340;30;20070;-63
2022/07/27 10:02:52;;;;;;;3.95;1.00;;;;;;;21.72;64.84;102061.75;4716547;30;20078;-64
2022/07/27 10:05:22;;;;;;;4.72;1.10;;;;;;;21.61;65.74;102062.25;4729439;30;20064;-63
2022/07/27 10:07:51;;;;;;;2.20;0.75;;;;;;;21.52;68.24;102063.38;4741411;30;20553;-63
2022/07/27 10:10:19;;;;;;;2.60;1.08;;;;;;;21.46;68.71;102062.31;4733700;30;20059;-63
2022/07/27 10:12:47;;;;;;;6.75;1.10;;;;;;;21.50;70.10;102076.06;4745246;30;20073;-63
2022/07/27 10:15:21;;;;;;;2.63;0.90;;;;;;;21.45;69.61;102081.19;4735430;30;20159;-63
2022/07/27 10:17:58;;;;;;;5.25;1.10;;;;;;;21.34;69.96;102082.44;4742526;30;20056;-64
2022/07/27 10:20:28;;;;;;;3.42;0.88;;;;;;;21.31;71.25;102080.97;4717420;30;20060;-64
2022/07/27 10:22:58;;;;;;;3.28;0.82;;;;;;;21.22;69.75;102075.94;4733619;30;20528;-62
2022/07/27 10:25:26;;;;;;;5.57;1.08;;;;;;;21.10;70.82;102084.41;4723372;30;20060;-63
2022/07/27 10:28:16;;;;;;;2.75;0.93;;;;;;;21.03;70.41;102086.19;4742613;30;20068;-64
2022/07/27 10:30:43;;;;;;;5.35;0.90;;;;;;;21.04;72.07;102085.16;4742234;30;20154;-62
2022/07/27 10:33:41;;;;;;;4.68;1.20;;;;;;;21.10;72.90;102078.25;4732073;30;20502;-63
2022/07/27 10:36:31;;;;;;;;;;;;;;;21.07;71.55;102075.94;4730445;30;20061;-63
2022/07/27 10:39:00;;;;;;;2.92;0.90;;;;;;;21.15;71.05;102062.53;4732713;30;20364;-64
2022/07/27 10:41:33;;;;;;;3.00;1.00;;;;;;;21.26;69.70;102063.88;4750565;30;20064;-62
2022/07/27 10:44:32;;;;;;;6.32;1.30;;;;;;;21.37;67.79;102057.25;4741289;30;20510;-61
2022/07/27 10:47:01;;;;;;;6.93;0.90;;;;;;;21.45;67.69;102051.81;4711023;30;20548;-62
2022/07/27 10:49:33;;;;;;;7.72;1.08;;;;;;;21.52;65.94;102055.34;4731950;30;20506;-62
2022/07/27 10:52:06;;;;;;;3.35;0.93;;;;;;;21.51;66.09;102054.53;4748351;30;20060;-62
2022/07/27 10:54:37;;;;;;;3.95;1.20;;;;;;;21.44;63.09;102053.63;4741130;30;20060;-62
2022/07/27 10:57:07;;;;;;;3.00;0.80;;;;;;;21.56;67.35;102053.16;4737348;30;20526;-62
2022/07/27 10:59:37;;;;;;;2.20;0.88;;;;;;;21.70;62.42;102055.78;4734504;30;20064;-61
2022/07/27 11:02:41;;;;;;;3.65;0.80;;;;;;;21.82;62.08;102057.94;4724892;30;20056;-63
2022/07/27 11:05:10;;;;;;;5.35;1.02;;;;;;;21.80;63.71;102052.78;4745304;30;20052;-62
2022/07/27 11:07:57;;;;;;;4.60;0.90;;;;;;;21.44;62.35;102042.97;4745913;30;20148;-61
2022/07/27 11:10:44;;;;;;;4.13;1.05;;;;;;;21.59;64.64;102048.25;4742027;30;20059;-62
2022/07/27 11:13:11;;;;;;;4.85;0.90;;;;;;;21.48;63.97;102044.25;4741817;30;20193;-62
2022/07/27 11:15:38;;;;;;;3.25;0.95;;;;;;;21.79;63.88;102039.63;4738773;30;20487;-63
2022/07/27 11:18:04;;;;;;;3.10;1.27;;;;;;;22.20;64.21;102039.75;4742041;30;20075;-61
2022/07/27 11:20:31;;;;;;;4.95;1.00;;;;;;;22.80;60.57;102034.81;4743269;30;20060;-64
2022/07/27 11:22:58;;;;;;;1.88;0.75;;;;;;;23.26;59.07;102028.03;4730644;30;20143;-62
2022/07/27 11:25:58;;;;;;;2.67;1.02;;;;;;;23.92;60.54;102030.00;4731782;30;20434;-62
2022/07/27 11:28:29;;;;;;;5.63;0.85;;;;;;;24.37;57.33;102018.63;4724903;30;20883;-62
2022/07/27 11:30:56;;;;;;;3.97;1.10;;;;;;;24.80;58.95;102023.50;4737594;30;20064;-61
2022/07/27 11:33:23;;;;;;;3.40;1.00;;;;;;;25.16;56.41;102019.41;4739465;30;20060;-62